sensor_id;sensor_type;location;lat;lon;timestamp;P1;P2;P0
75563;PMS7003;64143;53.034;18.582;2022-11-03T00:01:27;1;1;0
75563;PMS7003;64143;53.034;18.582;2022-11-03T00:04:28;0;0;0
75563;PMS7003;64143;53.034;18.582;2022-11-03T00:07:30;0;0;0
75563;PMS7003;64143;53.034;18.582;2022-11-03T00:10:31;1;1;0
75563;PMS7003;64143;53.034;18.582;2022-11-03T00:13:40;1;1;0
75563;PMS7003;64143;53.034;18.582;2022-11-03T00:16:43;0;0;0
75563;PMS7003;64143;53.034;18.582;2022-11-03T00:19:44;2;1;0
75563;PMS7003;64143;53.034;18.582;2022-11-03T00:22:46;0;0;0
75563;PMS7003;64143;53.034;18.582;2022-11-03T00:25:47;0;0;0
75563;PMS7003;64143;53.034;18.582;2022-11-03T00:29:00;1;0;0
75563;PMS7003;64143;53.034;18.582;2022-11-03T00:32:06;0;0;0
75563;PMS7003;64143;53.034;18.582;2022-11-03T00:35:07;0;0;0
75563;PMS7003;64143;53.034;18.582;2022-11-03T00:38:09;0;0;0
75563;PMS7003;64143;53.034;18.582;2022-11-03T00:41:10;0;0;0
75563;PMS7003;64143;53.034;18.582;2022-11-03T00:44:20;1;0;0
75563;PMS7003;64143;53.034;18.582;2022-11-03T00:47:21;0;0;0
75563;PMS7003;64143;53.034;18.582;2022-11-03T00:50:23;3;2;0
75563;PMS7003;64143;53.034;18.582;2022-11-03T00:53:24;0;0;0
75563;PMS7003;64143;53.034;18.582;2022-11-03T00:59:41;1;1;0
75563;PMS7003;64143;53.034;18.582;2022-11-03T01:02:43;0;0;0
75563;PMS7003;64143;53.034;18.582;2022-11-03T01:05:44;0;0;0
75563;PMS7003;64143;53.034;18.582;2022-11-03T01:09:07;0;0;0
75563;PMS7003;64143;53.034;18.582;2022-11-03T01:12:09;0;0;0
75563;PMS7003;64143;53.034;18.582;2022-11-03T01:15:16;0;0;0
75563;PMS7003;64143;53.034;18.582;2022-11-03T01:18:17;0;0;0
75563;PMS7003;64143;53.034;18.582;2022-11-03T01:21:19;1;1;0
75563;PMS7003;64143;53.034;18.582;2022-11-03T01:24:28;0;0;0
75563;PMS7003;64143;53.034;18.582;2022-11-03T01:27:29;1;1;0
75563;PMS7003;64143;53.034;18.582;2022-11-03T01:30:34;0;0;0
75563;PMS7003;64143;53.034;18.582;2022-11-03T01:33:36;1;1;0
75563;PMS7003;64143;53.034;18.582;2022-11-03T01:36:37;1;1;0
75563;PMS7003;64143;53.034;18.582;2022-11-03T01:39:48;0;0;0
75563;PMS7003;64143;53.034;18.582;2022-11-03T01:42:50;4;3;0
75563;PMS7003;64143;53.034;18.582;2022-11-03T01:46:02;0;0;0
75563;PMS7003;64143;53.034;18.582;2022-11-03T01:49:05;1;1;0
75563;PMS7003;64143;53.034;18.582;2022-11-03T01:55:28;1;1;0
75563;PMS7003;64143;53.034;18.582;2022-11-03T01:58:36;3;2;0
75563;PMS7003;64143;53.034;18.582;2022-11-03T02:01:44;0;0;0
75563;PMS7003;64143;53.034;18.582;2022-11-03T02:04:48;1;1;0
75563;PMS7003;64143;53.034;18.582;2022-11-03T02:07:55;0;0;0
75563;PMS7003;64143;53.034;18.582;2022-11-03T02:11:02;2;1;0
75563;PMS7003;64143;53.034;18.582;2022-11-03T02:14:15;1;0;0
75563;PMS7003;64143;53.034;18.582;2022-11-03T02:17:16;2;2;0
75563;PMS7003;64143;53.034;18.582;2022-11-03T02:20:22;1;1;0
75563;PMS7003;64143;53.034;18.582;2022-11-03T02:26:42;2;2;0
75563;PMS7003;64143;53.034;18.582;2022-11-03T02:29:48;0;0;0
75563;PMS7003;64143;53.034;18.582;2022-11-03T02:32:55;0;0;0
75563;PMS7003;64143;53.034;18.582;2022-11-03T02:36:09;1;0;0
75563;PMS7003;64143;53.034;18.582;2022-11-03T02:39:20;0;0;0
75563;PMS7003;64143;53.034;18.582;2022-11-03T02:42:31;1;1;0
75563;PMS7003;64143;53.034;18.582;2022-11-03T02:45:35;1;0;0
75563;PMS7003;64143;53.034;18.582;2022-11-03T02:48:40;0;0;0
75563;PMS7003;64143;53.034;18.582;2022-11-03T02:51:41;1;1;0
75563;PMS7003;64143;53.034;18.582;2022-11-03T02:54:43;1;0;0
75563;PMS7003;64143;53.034;18.582;2022-11-03T02:57:55;0;0;0
75563;PMS7003;64143;53.034;18.582;2022-11-03T03:01:02;1;1;0
75563;PMS7003;64143;53.034;18.582;2022-11-03T03:07:35;3;2;1
75563;PMS7003;64143;53.034;18.582;2022-11-03T03:10:41;4;2;0
75563;PMS7003;64143;53.034;18.582;2022-11-03T03:13:46;1;1;0
75563;PMS7003;64143;53.034;18.582;2022-11-03T03:23:18;5;1;0
75563;PMS7003;64143;53.034;18.582;2022-11-03T03:26:24;1;1;0
75563;PMS7003;64143;53.034;18.582;2022-11-03T03:29:35;1;1;0
75563;PMS7003;64143;53.034;18.582;2022-11-03T03:32:50;3;0;0
75563;PMS7003;64143;53.034;18.582;2022-11-03T03:35:49;3;3;1
75563;PMS7003;64143;53.034;18.582;2022-11-03T03:38:54;5;3;1
75563;PMS7003;64143;53.034;18.582;2022-11-03T03:42:01;3;3;1
75563;PMS7003;64143;53.034;18.582;2022-11-03T03:45:05;4;2;1
75563;PMS7003;64143;53.034;18.582;2022-11-03T03:48:10;5;3;2
75563;PMS7003;64143;53.034;18.582;2022-11-03T03:51:12;2;2;1
75563;PMS7003;64143;53.034;18.582;2022-11-03T03:54:16;1;1;1
75563;PMS7003;64143;53.034;18.582;2022-11-03T03:57:22;2;2;1
75563;PMS7003;64143;53.034;18.582;2022-11-03T04:00:25;2;2;1
75563;PMS7003;64143;53.034;18.582;2022-11-03T04:03:26;2;2;1
75563;PMS7003;64143;53.034;18.582;2022-11-03T04:06:30;7;4;2
75563;PMS7003;64143;53.034;18.582;2022-11-03T04:09:31;5;5;3
75563;PMS7003;64143;53.034;18.582;2022-11-03T04:12:42;3;3;1
75563;PMS7003;64143;53.034;18.582;2022-11-03T04:15:57;18;17;8
75563;PMS7003;64143;53.034;18.582;2022-11-03T04:19:11;19;18;10
75563;PMS7003;64143;53.034;18.582;2022-11-03T04:22:27;13;12;8
75563;PMS7003;64143;53.034;18.582;2022-11-03T04:25:31;9;6;4
75563;PMS7003;64143;53.034;18.582;2022-11-03T04:28:32;6;6;3
75563;PMS7003;64143;53.034;18.582;2022-11-03T04:31:43;6;5;2
75563;PMS7003;64143;53.034;18.582;2022-11-03T04:34:45;4;3;2
75563;PMS7003;64143;53.034;18.582;2022-11-03T04:37:48;5;5;3
75563;PMS7003;64143;53.034;18.582;2022-11-03T04:44:21;3;3;1
75563;PMS7003;64143;53.034;18.582;2022-11-03T04:47:24;6;6;5
75563;PMS7003;64143;53.034;18.582;2022-11-03T04:50:36;9;6;2
75563;PMS7003;64143;53.034;18.582;2022-11-03T04:53:37;10;7;5
75563;PMS7003;64143;53.034;18.582;2022-11-03T04:56:48;6;6;3
75563;PMS7003;64143;53.034;18.582;2022-11-03T04:59:49;12;10;5
75563;PMS7003;64143;53.034;18.582;2022-11-03T05:02:51;10;7;5
75563;PMS7003;64143;53.034;18.582;2022-11-03T05:05:57;6;5;4
75563;PMS7003;64143;53.034;18.582;2022-11-03T05:09:06;8;6;4
75563;PMS7003;64143;53.034;18.582;2022-11-03T05:12:16;8;8;5
75563;PMS7003;64143;53.034;18.582;2022-11-03T05:18:38;5;3;2
75563;PMS7003;64143;53.034;18.582;2022-11-03T05:21:42;3;3;2
75563;PMS7003;64143;53.034;18.582;2022-11-03T05:24:51;5;4;2
75563;PMS7003;64143;53.034;18.582;2022-11-03T05:27:57;6;6;3
75563;PMS7003;64143;53.034;18.582;2022-11-03T05:30:58;3;3;2
75563;PMS7003;64143;53.034;18.582;2022-11-03T05:34:00;9;7;3
75563;PMS7003;64143;53.034;18.582;2022-11-03T05:37:11;3;3;1
75563;PMS7003;64143;53.034;18.582;2022-11-03T05:43:27;19;15;10
75563;PMS7003;64143;53.034;18.582;2022-11-03T05:46:30;16;16;9
75563;PMS7003;64143;53.034;18.582;2022-11-03T05:49:38;17;14;9
75563;PMS7003;64143;53.034;18.582;2022-11-03T05:52:39;19;13;7
75563;PMS7003;64143;53.034;18.582;2022-11-03T05:55:41;17;13;8
75563;PMS7003;64143;53.034;18.582;2022-11-03T05:58:44;14;13;7
75563;PMS7003;64143;53.034;18.582;2022-11-03T06:01:48;22;11;6
75563;PMS7003;64143;53.034;18.582;2022-11-03T06:04:58;4;2;0
75563;PMS7003;64143;53.034;18.582;2022-11-03T06:08:01;8;8;4
75563;PMS7003;64143;53.034;18.582;2022-11-03T06:11:09;7;7;4
75563;PMS7003;64143;53.034;18.582;2022-11-03T06:14:25;12;9;6
75563;PMS7003;64143;53.034;18.582;2022-11-03T06:17:29;15;10;5
75563;PMS7003;64143;53.034;18.582;2022-11-03T06:20:31;10;9;3
75563;PMS7003;64143;53.034;18.582;2022-11-03T06:23:34;12;11;5
75563;PMS7003;64143;53.034;18.582;2022-11-03T06:26:37;3;3;2
75563;PMS7003;64143;53.034;18.582;2022-11-03T06:29:47;7;5;3
75563;PMS7003;64143;53.034;18.582;2022-11-03T06:32:52;12;11;6
75563;PMS7003;64143;53.034;18.582;2022-11-03T06:35:59;5;5;3
75563;PMS7003;64143;53.034;18.582;2022-11-03T06:39:16;12;10;6
75563;PMS7003;64143;53.034;18.582;2022-11-03T06:42:25;8;8;6
75563;PMS7003;64143;53.034;18.582;2022-11-03T06:45:32;8;8;5
75563;PMS7003;64143;53.034;18.582;2022-11-03T06:48:39;27;24;13
75563;PMS7003;64143;53.034;18.582;2022-11-03T06:51:40;17;17;9
75563;PMS7003;64143;53.034;18.582;2022-11-03T06:54:42;28;24;13
75563;PMS7003;64143;53.034;18.582;2022-11-03T06:57:47;34;25;15
75563;PMS7003;64143;53.034;18.582;2022-11-03T07:00:51;25;22;13
75563;PMS7003;64143;53.034;18.582;2022-11-03T07:04:10;9;9;6
75563;PMS7003;64143;53.034;18.582;2022-11-03T07:07:14;15;13;7
75563;PMS7003;64143;53.034;18.582;2022-11-03T07:10:22;13;10;6
75563;PMS7003;64143;53.034;18.582;2022-11-03T07:13:28;10;10;7
75563;PMS7003;64143;53.034;18.582;2022-11-03T07:16:34;14;13;7
75563;PMS7003;64143;53.034;18.582;2022-11-03T07:19:42;8;7;6
75563;PMS7003;64143;53.034;18.582;2022-11-03T07:22:53;7;6;4
75563;PMS7003;64143;53.034;18.582;2022-11-03T07:26:00;10;8;4
75563;PMS7003;64143;53.034;18.582;2022-11-03T07:29:03;9;9;5
75563;PMS7003;64143;53.034;18.582;2022-11-03T07:32:07;6;6;3
75563;PMS7003;64143;53.034;18.582;2022-11-03T07:35:23;6;6;5
75563;PMS7003;64143;53.034;18.582;2022-11-03T07:38:28;11;11;6
75563;PMS7003;64143;53.034;18.582;2022-11-03T07:41:30;9;5;3
75563;PMS7003;64143;53.034;18.582;2022-11-03T07:44:33;15;12;7
75563;PMS7003;64143;53.034;18.582;2022-11-03T07:47:35;8;6;3
75563;PMS7003;64143;53.034;18.582;2022-11-03T07:50:37;9;8;4
75563;PMS7003;64143;53.034;18.582;2022-11-03T07:53:42;8;8;4
75563;PMS7003;64143;53.034;18.582;2022-11-03T07:56:57;6;5;4
75563;PMS7003;64143;53.034;18.582;2022-11-03T08:00:03;13;8;6
75563;PMS7003;64143;53.034;18.582;2022-11-03T08:03:12;9;8;6
75563;PMS7003;64143;53.034;18.582;2022-11-03T08:06:21;6;5;3
75563;PMS7003;64143;53.034;18.582;2022-11-03T08:09:22;9;9;5
75563;PMS7003;64143;53.034;18.582;2022-11-03T08:12:35;7;6;4
75563;PMS7003;64143;53.034;18.582;2022-11-03T08:15:36;8;8;6
75563;PMS7003;64143;53.034;18.582;2022-11-03T08:18:38;7;7;4
75563;PMS7003;64143;53.034;18.582;2022-11-03T08:21:39;10;9;6
75563;PMS7003;64143;53.034;18.582;2022-11-03T08:24:41;8;7;5
75563;PMS7003;64143;53.034;18.582;2022-11-03T08:27:42;18;11;6
75563;PMS7003;64143;53.034;18.582;2022-11-03T08:30:43;6;6;4
75563;PMS7003;64143;53.034;18.582;2022-11-03T08:33:50;13;8;6
75563;PMS7003;64143;53.034;18.582;2022-11-03T08:36:51;9;6;4
75563;PMS7003;64143;53.034;18.582;2022-11-03T08:39:52;8;7;5
75563;PMS7003;64143;53.034;18.582;2022-11-03T08:42:54;8;8;5
75563;PMS7003;64143;53.034;18.582;2022-11-03T08:45:55;6;6;2
75563;PMS7003;64143;53.034;18.582;2022-11-03T08:48:57;5;5;3
75563;PMS7003;64143;53.034;18.582;2022-11-03T08:51:59;11;10;6
75563;PMS7003;64143;53.034;18.582;2022-11-03T08:55:05;13;9;6
75563;PMS7003;64143;53.034;18.582;2022-11-03T08:58:06;3;1;0
75563;PMS7003;64143;53.034;18.582;2022-11-03T09:01:08;8;7;3
75563;PMS7003;64143;53.034;18.582;2022-11-03T09:04:09;5;5;4
75563;PMS7003;64143;53.034;18.582;2022-11-03T09:07:11;8;8;4
75563;PMS7003;64143;53.034;18.582;2022-11-03T09:10:12;7;7;4
75563;PMS7003;64143;53.034;18.582;2022-11-03T09:13:14;6;6;3
75563;PMS7003;64143;53.034;18.582;2022-11-03T09:16:19;11;8;5
75563;PMS7003;64143;53.034;18.582;2022-11-03T09:19:21;8;8;5
75563;PMS7003;64143;53.034;18.582;2022-11-03T09:22:22;8;5;2
75563;PMS7003;64143;53.034;18.582;2022-11-03T09:25:24;7;6;3
75563;PMS7003;64143;53.034;18.582;2022-11-03T09:28:25;9;9;7
75563;PMS7003;64143;53.034;18.582;2022-11-03T09:31:27;7;7;5
75563;PMS7003;64143;53.034;18.582;2022-11-03T09:34:29;9;6;3
75563;PMS7003;64143;53.034;18.582;2022-11-03T09:37:34;10;9;5
75563;PMS7003;64143;53.034;18.582;2022-11-03T09:40:36;8;8;5
75563;PMS7003;64143;53.034;18.582;2022-11-03T09:43:38;7;7;3
75563;PMS7003;64143;53.034;18.582;2022-11-03T09:46:39;18;18;12
75563;PMS7003;64143;53.034;18.582;2022-11-03T09:49:41;7;7;3
75563;PMS7003;64143;53.034;18.582;2022-11-03T09:52:42;7;7;5
75563;PMS7003;64143;53.034;18.582;2022-11-03T09:55:44;15;15;8
75563;PMS7003;64143;53.034;18.582;2022-11-03T09:58:49;10;9;6
75563;PMS7003;64143;53.034;18.582;2022-11-03T10:01:51;6;6;4
75563;PMS7003;64143;53.034;18.582;2022-11-03T10:04:55;5;5;3
75563;PMS7003;64143;53.034;18.582;2022-11-03T10:07:58;8;7;2
75563;PMS7003;64143;53.034;18.582;2022-11-03T10:11:03;5;5;3
75563;PMS7003;64143;53.034;18.582;2022-11-03T10:14:10;4;3;1
75563;PMS7003;64143;53.034;18.582;2022-11-03T10:17:17;6;5;3
75563;PMS7003;64143;53.034;18.582;2022-11-03T10:20:22;4;1;0
75563;PMS7003;64143;53.034;18.582;2022-11-03T10:23:24;3;3;2
75563;PMS7003;64143;53.034;18.582;2022-11-03T10:26:26;8;8;3
75563;PMS7003;64143;53.034;18.582;2022-11-03T10:29:33;4;3;3
75563;PMS7003;64143;53.034;18.582;2022-11-03T10:32:35;2;2;1
75563;PMS7003;64143;53.034;18.582;2022-11-03T10:35:38;5;5;3
75563;PMS7003;64143;53.034;18.582;2022-11-03T10:38:42;22;20;10
75563;PMS7003;64143;53.034;18.582;2022-11-03T10:41:54;31;26;16
75563;PMS7003;64143;53.034;18.582;2022-11-03T10:48:11;3;2;1
75563;PMS7003;64143;53.034;18.582;2022-11-03T10:51:13;3;2;1
75563;PMS7003;64143;53.034;18.582;2022-11-03T10:54:19;4;4;3
75563;PMS7003;64143;53.034;18.582;2022-11-03T10:57:23;3;3;1
75563;PMS7003;64143;53.034;18.582;2022-11-03T11:00:26;4;4;2
75563;PMS7003;64143;53.034;18.582;2022-11-03T11:03:28;7;3;1
75563;PMS7003;64143;53.034;18.582;2022-11-03T11:06:30;2;1;0
75563;PMS7003;64143;53.034;18.582;2022-11-03T11:09:39;1;0;0
75563;PMS7003;64143;53.034;18.582;2022-11-03T11:13:00;0;0;0
75563;PMS7003;64143;53.034;18.582;2022-11-03T11:15:54;2;0;0
75563;PMS7003;64143;53.034;18.582;2022-11-03T11:19:06;0;0;0
75563;PMS7003;64143;53.034;18.582;2022-11-03T11:22:11;1;1;0
75563;PMS7003;64143;53.034;18.582;2022-11-03T11:25:13;1;1;0
75563;PMS7003;64143;53.034;18.582;2022-11-03T11:28:17;0;0;0
75563;PMS7003;64143;53.034;18.582;2022-11-03T11:37:40;8;2;0
75563;PMS7003;64143;53.034;18.582;2022-11-03T11:43:52;0;0;0
75563;PMS7003;64143;53.034;18.582;2022-11-03T11:46:54;1;0;0
75563;PMS7003;64143;53.034;18.582;2022-11-03T11:53:20;0;0;0
75563;PMS7003;64143;53.034;18.582;2022-11-03T11:56:23;0;0;0
75563;PMS7003;64143;53.034;18.582;2022-11-03T11:59:24;3;0;0
75563;PMS7003;64143;53.034;18.582;2022-11-03T12:02:27;0;0;0
75563;PMS7003;64143;53.034;18.582;2022-11-03T12:05:31;1;1;0
75563;PMS7003;64143;53.034;18.582;2022-11-03T12:08:40;0;0;0
75563;PMS7003;64143;53.034;18.582;2022-11-03T12:11:47;0;0;0
75563;PMS7003;64143;53.034;18.582;2022-11-03T12:14:50;5;3;1
75563;PMS7003;64143;53.034;18.582;2022-11-03T12:17:51;1;0;0
75563;PMS7003;64143;53.034;18.582;2022-11-03T12:20:53;0;0;0
75563;PMS7003;64143;53.034;18.582;2022-11-03T12:24:00;2;1;0
75563;PMS7003;64143;53.034;18.582;2022-11-03T12:30:25;0;0;0
75563;PMS7003;64143;53.034;18.582;2022-11-03T12:33:30;2;2;0
75563;PMS7003;64143;53.034;18.582;2022-11-03T12:36:31;0;0;0
75563;PMS7003;64143;53.034;18.582;2022-11-03T12:39:33;6;3;0
75563;PMS7003;64143;53.034;18.582;2022-11-03T12:42:35;2;2;0
75563;PMS7003;64143;53.034;18.582;2022-11-03T12:45:36;3;1;0
75563;PMS7003;64143;53.034;18.582;2022-11-03T12:48:38;0;0;0
75563;PMS7003;64143;53.034;18.582;2022-11-03T12:51:43;1;1;0
75563;PMS7003;64143;53.034;18.582;2022-11-03T12:54:48;1;1;0
75563;PMS7003;64143;53.034;18.582;2022-11-03T12:57:50;0;0;0
75563;PMS7003;64143;53.034;18.582;2022-11-03T13:00:51;4;2;1
75563;PMS7003;64143;53.034;18.582;2022-11-03T13:03:53;2;2;0
75563;PMS7003;64143;53.034;18.582;2022-11-03T13:06:54;0;0;0
75563;PMS7003;64143;53.034;18.582;2022-11-03T13:09:56;0;0;0
75563;PMS7003;64143;53.034;18.582;2022-11-03T13:12:57;0;0;0
75563;PMS7003;64143;53.034;18.582;2022-11-03T13:16:03;17;15;8
75563;PMS7003;64143;53.034;18.582;2022-11-03T13:19:05;0;0;0
75563;PMS7003;64143;53.034;18.582;2022-11-03T13:22:10;1;1;0
75563;PMS7003;64143;53.034;18.582;2022-11-03T13:25:12;2;2;1
75563;PMS7003;64143;53.034;18.582;2022-11-03T13:28:13;4;2;0
75563;PMS7003;64143;53.034;18.582;2022-11-03T13:31:24;4;3;1
75563;PMS7003;64143;53.034;18.582;2022-11-03T13:34:25;5;5;2
75563;PMS7003;64143;53.034;18.582;2022-11-03T13:37:26;1;1;0
75563;PMS7003;64143;53.034;18.582;2022-11-03T13:40:28;8;7;3
75563;PMS7003;64143;53.034;18.582;2022-11-03T13:43:29;7;5;3
75563;PMS7003;64143;53.034;18.582;2022-11-03T13:46:31;6;6;3
75563;PMS7003;64143;53.034;18.582;2022-11-03T13:49:32;10;9;5
75563;PMS7003;64143;53.034;18.582;2022-11-03T13:52:38;7;4;2
75563;PMS7003;64143;53.034;18.582;2022-11-03T13:55:40;7;7;2
75563;PMS7003;64143;53.034;18.582;2022-11-03T13:58:41;7;7;3
75563;PMS7003;64143;53.034;18.582;2022-11-03T14:01:43;3;2;1
75563;PMS7003;64143;53.034;18.582;2022-11-03T14:04:45;2;2;1
75563;PMS7003;64143;53.034;18.582;2022-11-03T14:07:46;3;3;1
75563;PMS7003;64143;53.034;18.582;2022-11-03T14:10:49;4;4;1
75563;PMS7003;64143;53.034;18.582;2022-11-03T14:13:54;5;2;1
75563;PMS7003;64143;53.034;18.582;2022-11-03T14:16:55;1;1;0
75563;PMS7003;64143;53.034;18.582;2022-11-03T14:19:57;4;2;0
75563;PMS7003;64143;53.034;18.582;2022-11-03T14:22:59;1;1;0
75563;PMS7003;64143;53.034;18.582;2022-11-03T14:26:01;2;2;1
75563;PMS7003;64143;53.034;18.582;2022-11-03T14:29:03;1;1;0
75563;PMS7003;64143;53.034;18.582;2022-11-03T14:32:04;2;1;0
75563;PMS7003;64143;53.034;18.582;2022-11-03T14:35:09;5;2;0
75563;PMS7003;64143;53.034;18.582;2022-11-03T14:38:11;2;1;0
75563;PMS7003;64143;53.034;18.582;2022-11-03T14:41:12;1;0;0
75563;PMS7003;64143;53.034;18.582;2022-11-03T14:44:36;5;3;2
75563;PMS7003;64143;53.034;18.582;2022-11-03T14:47:39;0;0;0
75563;PMS7003;64143;53.034;18.582;2022-11-03T14:50:41;2;1;0
75563;PMS7003;64143;53.034;18.582;2022-11-03T14:53:42;2;2;1
75563;PMS7003;64143;53.034;18.582;2022-11-03T14:56:44;4;2;1
75563;PMS7003;64143;53.034;18.582;2022-11-03T14:59:45;5;4;1
75563;PMS7003;64143;53.034;18.582;2022-11-03T15:02:46;6;6;3
75563;PMS7003;64143;53.034;18.582;2022-11-03T15:05:51;6;6;4
75563;PMS7003;64143;53.034;18.582;2022-11-03T15:08:55;7;6;2
75563;PMS7003;64143;53.034;18.582;2022-11-03T15:11:56;6;4;1
75563;PMS7003;64143;53.034;18.582;2022-11-03T15:14:58;4;2;1
75563;PMS7003;64143;53.034;18.582;2022-11-03T15:18:00;7;7;3
75563;PMS7003;64143;53.034;18.582;2022-11-03T15:21:12;5;3;2
75563;PMS7003;64143;53.034;18.582;2022-11-03T15:24:15;4;3;1
75563;PMS7003;64143;53.034;18.582;2022-11-03T15:27:16;3;2;2
75563;PMS7003;64143;53.034;18.582;2022-11-03T15:30:18;5;4;3
75563;PMS7003;64143;53.034;18.582;2022-11-03T15:33:19;2;2;0
75563;PMS7003;64143;53.034;18.582;2022-11-03T15:36:20;4;4;2
75563;PMS7003;64143;53.034;18.582;2022-11-03T15:39:23;16;8;4
75563;PMS7003;64143;53.034;18.582;2022-11-03T15:42:28;3;3;2
75563;PMS7003;64143;53.034;18.582;2022-11-03T15:45:30;11;5;3
75563;PMS7003;64143;53.034;18.582;2022-11-03T15:48:32;2;2;1
75563;PMS7003;64143;53.034;18.582;2022-11-03T15:51:33;4;2;2
75563;PMS7003;64143;53.034;18.582;2022-11-03T15:54:35;5;4;3
75563;PMS7003;64143;53.034;18.582;2022-11-03T15:57:36;5;5;3
75563;PMS7003;64143;53.034;18.582;2022-11-03T16:00:38;6;6;3
75563;PMS7003;64143;53.034;18.582;2022-11-03T16:03:43;2;2;0
75563;PMS7003;64143;53.034;18.582;2022-11-03T16:06:44;8;4;2
75563;PMS7003;64143;53.034;18.582;2022-11-03T16:09:46;5;5;3
75563;PMS7003;64143;53.034;18.582;2022-11-03T16:12:47;9;6;3
75563;PMS7003;64143;53.034;18.582;2022-11-03T16:15:49;8;7;5
75563;PMS7003;64143;53.034;18.582;2022-11-03T16:18:50;7;6;4
75563;PMS7003;64143;53.034;18.582;2022-11-03T16:21:52;7;5;1
75563;PMS7003;64143;53.034;18.582;2022-11-03T16:24:59;8;3;1
75563;PMS7003;64143;53.034;18.582;2022-11-03T16:28:00;4;4;2
75563;PMS7003;64143;53.034;18.582;2022-11-03T16:31:02;7;4;2
75563;PMS7003;64143;53.034;18.582;2022-11-03T16:34:03;9;6;5
75563;PMS7003;64143;53.034;18.582;2022-11-03T16:37:05;8;8;3
75563;PMS7003;64143;53.034;18.582;2022-11-03T16:40:07;9;4;2
75563;PMS7003;64143;53.034;18.582;2022-11-03T16:43:10;14;8;5
75563;PMS7003;64143;53.034;18.582;2022-11-03T16:46:15;6;6;3
75563;PMS7003;64143;53.034;18.582;2022-11-03T16:49:16;7;7;5
75563;PMS7003;64143;53.034;18.582;2022-11-03T16:52:18;9;9;6
75563;PMS7003;64143;53.034;18.582;2022-11-03T16:55:19;10;9;4
75563;PMS7003;64143;53.034;18.582;2022-11-03T16:58:21;12;8;4
75563;PMS7003;64143;53.034;18.582;2022-11-03T17:01:22;9;8;6
75563;PMS7003;64143;53.034;18.582;2022-11-03T17:04:24;7;6;4
75563;PMS7003;64143;53.034;18.582;2022-11-03T17:07:30;7;6;3
75563;PMS7003;64143;53.034;18.582;2022-11-03T17:10:32;5;5;2
75563;PMS7003;64143;53.034;18.582;2022-11-03T17:13:33;6;5;2
75563;PMS7003;64143;53.034;18.582;2022-11-03T17:16:35;4;4;2
75563;PMS7003;64143;53.034;18.582;2022-11-03T17:19:36;7;6;4
75563;PMS7003;64143;53.034;18.582;2022-11-03T17:22:38;8;7;4
75563;PMS7003;64143;53.034;18.582;2022-11-03T17:25:40;6;6;3
75563;PMS7003;64143;53.034;18.582;2022-11-03T17:28:45;8;7;4
75563;PMS7003;64143;53.034;18.582;2022-11-03T17:31:47;8;7;5
75563;PMS7003;64143;53.034;18.582;2022-11-03T17:34:51;3;3;2
75563;PMS7003;64143;53.034;18.582;2022-11-03T17:37:53;9;8;5
75563;PMS7003;64143;53.034;18.582;2022-11-03T17:40:56;5;2;1
